NZQN METAR and TAF | Updated Today

NZQN METAR

Queenstown International Airport

Queenstown International Airport (NZQN) hasn't published a METAR.
We found the following current weather conditions for Lower Shotover from other sources.

Queenstown International Airport (NZQN) METAR

  • Weather conditions right now at NZQN:
  • Present conditions: Clear
  • Clouds: Clear sky
  • Cloud cover: 6%
  • Wind: 218 at 1kts
  • Temperature: 14.1 celsius
  • Feels like: 13.4 celsius
  • Pressure: 1017mb
  • Humidity: 71%


Useful to know...

NZQN TAF

Queenstown International Airport

TAF AMD NZQN 070531Z 0705/0712 18010KT 9999 SCT080
Observation time: 2:43 hr. ago
Need help? Read our tutorial on how to read TAFs or read the parsed version below.

Parsed version of TAF for Queenstown International Airport (NZQN)

  • From 07 December at 05:00 UTC, to day 07 of the month at 12:00 UTC
  • Clouds: Scattered at 2438 meters
  • Visibility: Greater than 10 km
  • Wind: 180 degrees at 10

Airports near NZQN

NZMF Weather
Region:

Milford Sound Airport

Not found in our database